sensor_id;sensor_type;location;lat;lon;timestamp;temperature;humidity
19864;DHT22;10094;48.820;9.226;2022-08-21T00:03:27;17.50;99.90
19864;DHT22;10094;48.820;9.226;2022-08-21T00:10:11;17.40;99.90
19864;DHT22;10094;48.820;9.226;2022-08-21T00:16:53;17.30;99.90
19864;DHT22;10094;48.820;9.226;2022-08-21T00:23:41;17.20;99.90
19864;DHT22;10094;48.820;9.226;2022-08-21T00:30:26;17.00;99.90
19864;DHT22;10094;48.820;9.226;2022-08-21T00:37:08;17.00;99.90
19864;DHT22;10094;48.820;9.226;2022-08-21T00:43:51;16.90;99.90
19864;DHT22;10094;48.820;9.226;2022-08-21T00:50:38;16.90;99.90
19864;DHT22;10094;48.820;9.226;2022-08-21T00:57:34;16.60;99.90
19864;DHT22;10094;48.820;9.226;2022-08-21T01:04:22;16.80;99.90
19864;DHT22;10094;48.820;9.226;2022-08-21T01:11:05;16.70;99.90
19864;DHT22;10094;48.820;9.226;2022-08-21T01:17:49;16.50;99.90
19864;DHT22;10094;48.820;9.226;2022-08-21T01:24:31;16.50;99.90
19864;DHT22;10094;48.820;9.226;2022-08-21T01:31:15;16.60;99.90
19864;DHT22;10094;48.820;9.226;2022-08-21T01:38:07;16.40;99.90
19864;DHT22;10094;48.820;9.226;2022-08-21T01:44:49;16.30;99.90
19864;DHT22;10094;48.820;9.226;2022-08-21T01:51:35;16.30;99.90
19864;DHT22;10094;48.820;9.226;2022-08-21T01:58:18;16.20;99.90
19864;DHT22;10094;48.820;9.226;2022-08-21T02:05:01;16.20;99.90
19864;DHT22;10094;48.820;9.226;2022-08-21T02:11:43;16.00;99.90
19864;DHT22;10094;48.820;9.226;2022-08-21T02:18:26;16.10;99.90
19864;DHT22;10094;48.820;9.226;2022-08-21T02:25:08;16.00;99.90
19864;DHT22;10094;48.820;9.226;2022-08-21T02:31:51;15.90;99.90
19864;DHT22;10094;48.820;9.226;2022-08-21T02:38:35;16.00;99.90
19864;DHT22;10094;48.820;9.226;2022-08-21T02:45:20;15.90;99.90
19864;DHT22;10094;48.820;9.226;2022-08-21T02:52:03;15.80;99.90
19864;DHT22;10094;48.820;9.226;2022-08-21T02:58:50;15.70;99.90
19864;DHT22;10094;48.820;9.226;2022-08-21T03:05:35;15.70;99.90
19864;DHT22;10094;48.820;9.226;2022-08-21T03:12:19;15.40;99.90
19864;DHT22;10094;48.820;9.226;2022-08-21T03:19:02;15.40;99.90
19864;DHT22;10094;48.820;9.226;2022-08-21T03:25:46;15.50;99.90
19864;DHT22;10094;48.820;9.226;2022-08-21T03:32:29;15.40;99.90
19864;DHT22;10094;48.820;9.226;2022-08-21T03:39:13;15.20;99.90
19864;DHT22;10094;48.820;9.226;2022-08-21T03:45:56;15.30;99.90
19864;DHT22;10094;48.820;9.226;2022-08-21T03:52:38;15.30;99.90
19864;DHT22;10094;48.820;9.226;2022-08-21T03:59:20;15.20;99.90
19864;DHT22;10094;48.820;9.226;2022-08-21T04:06:04;15.30;99.90
19864;DHT22;10094;48.820;9.226;2022-08-21T04:12:46;15.20;99.90
19864;DHT22;10094;48.820;9.226;2022-08-21T04:19:29;15.20;99.90
19864;DHT22;10094;48.820;9.226;2022-08-21T04:26:12;15.10;99.90
19864;DHT22;10094;48.820;9.226;2022-08-21T04:32:56;15.10;99.90
19864;DHT22;10094;48.820;9.226;2022-08-21T04:39:39;15.20;99.90
19864;DHT22;10094;48.820;9.226;2022-08-21T04:46:22;15.30;99.90
19864;DHT22;10094;48.820;9.226;2022-08-21T04:53:22;15.40;99.90
19864;DHT22;10094;48.820;9.226;2022-08-21T05:00:07;15.50;99.90
19864;DHT22;10094;48.820;9.226;2022-08-21T05:06:57;15.30;99.90
19864;DHT22;10094;48.820;9.226;2022-08-21T05:13:42;15.40;99.90
19864;DHT22;10094;48.820;9.226;2022-08-21T05:20:24;15.60;99.90
19864;DHT22;10094;48.820;9.226;2022-08-21T05:27:07;15.50;99.90
19864;DHT22;10094;48.820;9.226;2022-08-21T05:33:49;15.60;99.90
19864;DHT22;10094;48.820;9.226;2022-08-21T05:40:33;16.00;99.90
19864;DHT22;10094;48.820;9.226;2022-08-21T05:47:15;16.30;99.90
19864;DHT22;10094;48.820;9.226;2022-08-21T05:53:58;17.40;99.90
19864;DHT22;10094;48.820;9.226;2022-08-21T06:00:42;18.30;99.90
19864;DHT22;10094;48.820;9.226;2022-08-21T06:07:25;20.50;99.90
19864;DHT22;10094;48.820;9.226;2022-08-21T06:14:07;23.50;96.10
19864;DHT22;10094;48.820;9.226;2022-08-21T06:20:49;25.20;94.00
19864;DHT22;10094;48.820;9.226;2022-08-21T06:27:32;26.70;92.50
19864;DHT22;10094;48.820;9.226;2022-08-21T06:34:14;29.10;90.10
19864;DHT22;10094;48.820;9.226;2022-08-21T06:40:57;30.40;87.50
19864;DHT22;10094;48.820;9.226;2022-08-21T06:47:40;30.70;85.30
19864;DHT22;10094;48.820;9.226;2022-08-21T06:54:22;31.80;83.30
19864;DHT22;10094;48.820;9.226;2022-08-21T07:01:04;32.50;81.60
19864;DHT22;10094;48.820;9.226;2022-08-21T07:07:47;33.20;79.70
19864;DHT22;10094;48.820;9.226;2022-08-21T07:14:29;34.10;78.50
19864;DHT22;10094;48.820;9.226;2022-08-21T07:21:12;34.60;76.40
19864;DHT22;10094;48.820;9.226;2022-08-21T07:27:55;35.70;74.30
19864;DHT22;10094;48.820;9.226;2022-08-21T07:34:37;35.70;73.00
19864;DHT22;10094;48.820;9.226;2022-08-21T07:41:23;35.50;71.70
19864;DHT22;10094;48.820;9.226;2022-08-21T07:48:05;36.00;70.00
19864;DHT22;10094;48.820;9.226;2022-08-21T07:54:48;35.20;69.70
19864;DHT22;10094;48.820;9.226;2022-08-21T08:01:30;36.10;69.20
19864;DHT22;10094;48.820;9.226;2022-08-21T08:08:13;36.90;68.40
19864;DHT22;10094;48.820;9.226;2022-08-21T08:14:57;37.40;67.70
19864;DHT22;10094;48.820;9.226;2022-08-21T08:21:39;37.90;66.20
19864;DHT22;10094;48.820;9.226;2022-08-21T08:28:22;38.00;65.40
19864;DHT22;10094;48.820;9.226;2022-08-21T08:35:05;37.30;65.00
19864;DHT22;10094;48.820;9.226;2022-08-21T08:41:48;37.80;64.20
19864;DHT22;10094;48.820;9.226;2022-08-21T08:55:43;38.50;62.80
19864;DHT22;10094;48.820;9.226;2022-08-21T09:02:26;38.60;61.70
19864;DHT22;10094;48.820;9.226;2022-08-21T09:09:22;38.30;62.50
19864;DHT22;10094;48.820;9.226;2022-08-21T09:23:28;39.50;61.00
19864;DHT22;10094;48.820;9.226;2022-08-21T09:30:15;37.20;60.80
19864;DHT22;10094;48.820;9.226;2022-08-21T09:36:58;37.80;61.20
19864;DHT22;10094;48.820;9.226;2022-08-21T09:43:53;37.90;60.60
19864;DHT22;10094;48.820;9.226;2022-08-21T09:50:35;36.50;60.10
19864;DHT22;10094;48.820;9.226;2022-08-21T09:57:24;37.40;60.10
19864;DHT22;10094;48.820;9.226;2022-08-21T10:04:35;36.90;59.20
19864;DHT22;10094;48.820;9.226;2022-08-21T10:11:24;36.50;58.90
19864;DHT22;10094;48.820;9.226;2022-08-21T10:18:34;35.40;60.40
19864;DHT22;10094;48.820;9.226;2022-08-21T10:33:14;34.80;60.40
19864;DHT22;10094;48.820;9.226;2022-08-21T10:53:50;34.20;59.50
19864;DHT22;10094;48.820;9.226;2022-08-21T11:00:42;31.10;60.50
19864;DHT22;10094;48.820;9.226;2022-08-21T11:07:34;30.20;62.30
19864;DHT22;10094;48.820;9.226;2022-08-21T11:28:44;28.00;64.10
19864;DHT22;10094;48.820;9.226;2022-08-21T11:35:51;27.90;64.10
19864;DHT22;10094;48.820;9.226;2022-08-21T11:50:14;28.10;65.20
19864;DHT22;10094;48.820;9.226;2022-08-21T11:57:21;28.00;65.00
19864;DHT22;10094;48.820;9.226;2022-08-21T12:04:17;28.10;65.10
19864;DHT22;10094;48.820;9.226;2022-08-21T12:18:05;28.10;64.50
19864;DHT22;10094;48.820;9.226;2022-08-21T12:24:51;27.40;64.70
19864;DHT22;10094;48.820;9.226;2022-08-21T12:45:42;27.70;64.80
19864;DHT22;10094;48.820;9.226;2022-08-21T12:52:32;27.70;64.80
19864;DHT22;10094;48.820;9.226;2022-08-21T12:59:20;27.70;64.30
19864;DHT22;10094;48.820;9.226;2022-08-21T13:06:04;27.90;64.40
19864;DHT22;10094;48.820;9.226;2022-08-21T13:12:47;28.10;64.30
19864;DHT22;10094;48.820;9.226;2022-08-21T13:19:31;27.40;64.20
19864;DHT22;10094;48.820;9.226;2022-08-21T13:26:16;27.60;64.70
19864;DHT22;10094;48.820;9.226;2022-08-21T13:33:02;27.60;64.40
19864;DHT22;10094;48.820;9.226;2022-08-21T13:39:54;27.30;64.10
19864;DHT22;10094;48.820;9.226;2022-08-21T13:46:36;27.80;64.00
19864;DHT22;10094;48.820;9.226;2022-08-21T14:00:19;28.40;63.70
19864;DHT22;10094;48.820;9.226;2022-08-21T14:07:03;28.60;63.50
19864;DHT22;10094;48.820;9.226;2022-08-21T14:13:58;28.20;63.40
19864;DHT22;10094;48.820;9.226;2022-08-21T14:20:41;27.90;63.40
19864;DHT22;10094;48.820;9.226;2022-08-21T14:27:24;27.90;63.60
19864;DHT22;10094;48.820;9.226;2022-08-21T14:34:06;27.80;63.50
19864;DHT22;10094;48.820;9.226;2022-08-21T14:41:05;28.30;62.90
19864;DHT22;10094;48.820;9.226;2022-08-21T14:47:50;27.80;63.40
19864;DHT22;10094;48.820;9.226;2022-08-21T14:54:33;28.20;63.10
19864;DHT22;10094;48.820;9.226;2022-08-21T15:01:18;27.80;63.10
19864;DHT22;10094;48.820;9.226;2022-08-21T15:08:01;27.90;63.00
19864;DHT22;10094;48.820;9.226;2022-08-21T15:14:44;28.20;62.80
19864;DHT22;10094;48.820;9.226;2022-08-21T15:21:26;28.10;62.50
19864;DHT22;10094;48.820;9.226;2022-08-21T15:28:10;28.40;62.20
19864;DHT22;10094;48.820;9.226;2022-08-21T15:34:53;28.50;62.20
19864;DHT22;10094;48.820;9.226;2022-08-21T15:41:36;28.00;61.80
19864;DHT22;10094;48.820;9.226;2022-08-21T15:48:18;27.90;62.60
19864;DHT22;10094;48.820;9.226;2022-08-21T15:55:01;28.00;61.70
19864;DHT22;10094;48.820;9.226;2022-08-21T16:01:43;28.20;61.90
19864;DHT22;10094;48.820;9.226;2022-08-21T16:08:27;28.50;61.90
19864;DHT22;10094;48.820;9.226;2022-08-21T16:15:11;28.30;61.80
19864;DHT22;10094;48.820;9.226;2022-08-21T16:22:02;28.20;62.00
19864;DHT22;10094;48.820;9.226;2022-08-21T16:28:47;27.90;61.40
19864;DHT22;10094;48.820;9.226;2022-08-21T16:35:33;27.90;62.00
19864;DHT22;10094;48.820;9.226;2022-08-21T16:42:20;27.90;61.50
19864;DHT22;10094;48.820;9.226;2022-08-21T16:49:04;27.70;62.10
19864;DHT22;10094;48.820;9.226;2022-08-21T16:55:47;27.60;61.80
19864;DHT22;10094;48.820;9.226;2022-08-21T17:02:34;27.60;61.50
19864;DHT22;10094;48.820;9.226;2022-08-21T17:09:17;27.30;61.60
19864;DHT22;10094;48.820;9.226;2022-08-21T17:16:00;27.30;61.90
19864;DHT22;10094;48.820;9.226;2022-08-21T17:22:42;27.10;62.40
19864;DHT22;10094;48.820;9.226;2022-08-21T17:29:28;27.10;62.80
19864;DHT22;10094;48.820;9.226;2022-08-21T17:36:11;27.00;63.20
19864;DHT22;10094;48.820;9.226;2022-08-21T17:42:54;26.90;63.70
19864;DHT22;10094;48.820;9.226;2022-08-21T17:49:36;26.70;63.10
19864;DHT22;10094;48.820;9.226;2022-08-21T17:56:19;26.50;63.90
19864;DHT22;10094;48.820;9.226;2022-08-21T18:03:15;26.20;64.90
19864;DHT22;10094;48.820;9.226;2022-08-21T18:10:05;25.90;65.50
19864;DHT22;10094;48.820;9.226;2022-08-21T18:16:48;25.50;66.80
19864;DHT22;10094;48.820;9.226;2022-08-21T18:23:31;25.20;68.20
19864;DHT22;10094;48.820;9.226;2022-08-21T18:30:25;24.80;69.70
19864;DHT22;10094;48.820;9.226;2022-08-21T18:37:08;24.60;71.20
19864;DHT22;10094;48.820;9.226;2022-08-21T18:43:53;24.30;71.50
19864;DHT22;10094;48.820;9.226;2022-08-21T18:50:38;24.10;72.20
19864;DHT22;10094;48.820;9.226;2022-08-21T18:57:22;23.80;73.30
19864;DHT22;10094;48.820;9.226;2022-08-21T19:04:06;23.50;77.10
19864;DHT22;10094;48.820;9.226;2022-08-21T19:10:54;23.30;77.70
19864;DHT22;10094;48.820;9.226;2022-08-21T19:17:37;23.10;77.60
19864;DHT22;10094;48.820;9.226;2022-08-21T19:24:20;22.90;77.30
19864;DHT22;10094;48.820;9.226;2022-08-21T19:31:09;22.60;85.00
19864;DHT22;10094;48.820;9.226;2022-08-21T19:37:57;22.20;88.30
19864;DHT22;10094;48.820;9.226;2022-08-21T19:44:42;22.00;89.00
19864;DHT22;10094;48.820;9.226;2022-08-21T19:51:25;21.90;89.30
19864;DHT22;10094;48.820;9.226;2022-08-21T20:05:26;21.60;90.10
19864;DHT22;10094;48.820;9.226;2022-08-21T20:12:29;21.40;90.00
19864;DHT22;10094;48.820;9.226;2022-08-21T20:19:12;21.30;90.60
19864;DHT22;10094;48.820;9.226;2022-08-21T20:25:54;21.20;91.50
19864;DHT22;10094;48.820;9.226;2022-08-21T20:32:37;21.10;92.50
19864;DHT22;10094;48.820;9.226;2022-08-21T20:39:19;20.90;92.80
19864;DHT22;10094;48.820;9.226;2022-08-21T20:46:06;20.70;93.80
19864;DHT22;10094;48.820;9.226;2022-08-21T20:52:52;20.50;92.50
19864;DHT22;10094;48.820;9.226;2022-08-21T21:06:23;20.10;95.40
19864;DHT22;10094;48.820;9.226;2022-08-21T21:13:30;20.10;95.50
19864;DHT22;10094;48.820;9.226;2022-08-21T21:20:20;20.10;96.40
19864;DHT22;10094;48.820;9.226;2022-08-21T21:27:12;19.80;95.50
19864;DHT22;10094;48.820;9.226;2022-08-21T21:33:59;19.40;96.30
19864;DHT22;10094;48.820;9.226;2022-08-21T22:01:48;19.00;97.60
19864;DHT22;10094;48.820;9.226;2022-08-21T22:08:43;19.00;97.70
19864;DHT22;10094;48.820;9.226;2022-08-21T22:15:47;19.00;98.20
19864;DHT22;10094;48.820;9.226;2022-08-21T22:22:31;18.90;99.90
19864;DHT22;10094;48.820;9.226;2022-08-21T22:29:19;18.80;99.90
19864;DHT22;10094;48.820;9.226;2022-08-21T22:36:18;18.70;99.40
19864;DHT22;10094;48.820;9.226;2022-08-21T22:43:17;18.70;98.90
19864;DHT22;10094;48.820;9.226;2022-08-21T22:50:04;18.40;99.90
19864;DHT22;10094;48.820;9.226;2022-08-21T22:56:56;18.30;99.90
19864;DHT22;10094;48.820;9.226;2022-08-21T23:03:48;18.10;99.90
19864;DHT22;10094;48.820;9.226;2022-08-21T23:10:38;18.00;99.90
19864;DHT22;10094;48.820;9.226;2022-08-21T23:17:38;18.30;99.90
19864;DHT22;10094;48.820;9.226;2022-08-21T23:31:33;18.40;99.90
19864;DHT22;10094;48.820;9.226;2022-08-21T23:38:33;18.30;99.90
19864;DHT22;10094;48.820;9.226;2022-08-21T23:45:35;18.20;99.90
